createdAt,value
2022-12-18T00:01:26.256Z,49.10
2022-12-18T00:03:54.519Z,48.03
2022-12-18T00:06:21.998Z,46.63
2022-12-18T00:08:52.343Z,46.22
2022-12-18T00:11:21.307Z,40.85
2022-12-18T00:16:17.815Z,45.08
2022-12-18T00:18:44.443Z,47.08
2022-12-18T00:21:15.127Z,48.70
2022-12-18T00:23:44.031Z,46.72
2022-12-18T00:31:26.877Z,44.28
2022-12-18T00:33:58.184Z,46.17
2022-12-18T00:36:27.896Z,44.53
2022-12-18T00:38:59.535Z,45.58
2022-12-18T00:41:45.540Z,43.97
2022-12-18T00:44:15.024Z,51.20
2022-12-18T00:46:42.218Z,45.13
2022-12-18T00:49:09.091Z,49.33
2022-12-18T00:51:35.800Z,43.70
2022-12-18T00:54:02.628Z,51.03
2022-12-18T00:56:29.230Z,45.47
2022-12-18T00:58:55.783Z,43.53
2022-12-18T01:01:22.375Z,44.13
2022-12-18T01:03:50.394Z,44.20
2022-12-18T01:06:17.617Z,47.00
2022-12-18T01:08:44.319Z,46.92
2022-12-18T01:11:18.225Z,40.90
2022-12-18T01:13:44.966Z,51.40
2022-12-18T01:16:14.199Z,48.95
2022-12-18T01:18:43.617Z,48.65
2022-12-18T01:21:13.249Z,50.05
2022-12-18T01:23:40.846Z,49.35
2022-12-18T01:26:26.150Z,50.25
2022-12-18T01:28:52.758Z,37.92
2022-12-18T01:31:26.034Z,59.25
2022-12-18T01:33:53.669Z,47.92
2022-12-18T01:36:35.484Z,42.47
2022-12-18T01:39:09.076Z,43.22
2022-12-18T01:41:54.721Z,45.45
2022-12-18T01:44:58.668Z,44.28
2022-12-18T01:47:43.825Z,47.35
2022-12-18T01:50:21.088Z,43.00
2022-12-18T01:53:02.724Z,45.85
2022-12-18T01:55:31.972Z,51.20
2022-12-18T01:58:00.212Z,46.00
2022-12-18T02:00:29.091Z,45.08
2022-12-18T02:05:38.978Z,39.90
2022-12-18T02:08:15.989Z,48.38
2022-12-18T02:11:06.055Z,49.85
2022-12-18T02:13:58.460Z,36.63
2022-12-18T02:16:45.261Z,43.42
2022-12-18T02:19:32.257Z,47.45
2022-12-18T02:22:16.616Z,41.25
2022-12-18T02:25:01.697Z,50.25
2022-12-18T02:27:31.869Z,35.70
2022-12-18T02:30:03.359Z,44.20
2022-12-18T02:32:35.265Z,34.30
2022-12-18T02:35:05.339Z,42.45
2022-12-18T02:37:33.350Z,35.60
2022-12-18T02:40:00.745Z,42.38
2022-12-18T02:42:28.969Z,41.03
2022-12-18T02:44:55.608Z,42.42
2022-12-18T02:47:25.167Z,49.28
2022-12-18T02:50:19.123Z,51.05
2022-12-18T02:53:13.572Z,46.63
2022-12-18T02:55:42.933Z,40.05
2022-12-18T02:58:17.232Z,41.67
2022-12-18T03:00:53.041Z,42.47
2022-12-18T03:03:40.809Z,43.38
2022-12-18T03:06:13.552Z,42.13
2022-12-18T03:08:47.367Z,35.65
2022-12-18T03:11:15.433Z,45.78
2022-12-18T03:13:57.145Z,41.25
2022-12-18T03:16:29.610Z,52.85
2022-12-18T03:19:00.464Z,45.28
2022-12-18T03:21:33.623Z,45.20
2022-12-18T03:24:01.683Z,40.90
2022-12-18T03:26:30.659Z,36.95
2022-12-18T03:29:03.220Z,35.03
2022-12-18T03:31:32.914Z,46.97
2022-12-18T03:34:02.396Z,48.28
2022-12-18T03:36:32.075Z,41.03
2022-12-18T03:38:58.731Z,39.67
2022-12-18T03:41:46.621Z,40.88
2022-12-18T03:44:24.772Z,36.00
2022-12-18T03:47:02.631Z,43.13
2022-12-18T03:49:39.490Z,38.55
2022-12-18T03:52:22.080Z,40.45
2022-12-18T03:54:49.531Z,37.70
2022-12-18T03:57:20.807Z,35.67
2022-12-18T03:59:51.570Z,38.85
2022-12-18T04:02:18.888Z,45.20
2022-12-18T04:04:47.761Z,49.92
2022-12-18T04:07:15.323Z,38.80
2022-12-18T04:09:44.310Z,34.78
2022-12-18T04:12:13.862Z,34.83
2022-12-18T04:14:41.787Z,32.33
2022-12-18T04:17:08.434Z,37.90
2022-12-18T04:19:35.065Z,30.50
2022-12-18T04:22:01.920Z,32.60
2022-12-18T04:24:28.560Z,34.92
2022-12-18T04:26:55.232Z,31.85
2022-12-18T04:29:23.811Z,42.50
2022-12-18T04:31:50.324Z,35.15
2022-12-18T04:34:16.816Z,44.13
2022-12-18T04:36:43.334Z,30.30
2022-12-18T04:39:09.879Z,32.38
2022-12-18T04:41:36.344Z,30.25
2022-12-18T04:44:02.812Z,40.72
2022-12-18T04:46:29.390Z,40.00
2022-12-18T04:48:55.962Z,33.13
2022-12-18T04:51:26.417Z,26.77
2022-12-18T04:53:53.553Z,41.55
2022-12-18T04:56:20.066Z,29.83
2022-12-18T04:58:46.758Z,35.58
2022-12-18T05:01:15.802Z,34.15
2022-12-18T05:03:43.004Z,30.25
2022-12-18T05:06:10.465Z,27.98
2022-12-18T05:08:37.025Z,28.95
2022-12-18T05:11:09.364Z,29.23
2022-12-18T05:13:39.290Z,30.42
2022-12-18T05:16:06.691Z,30.67
2022-12-18T05:18:33.508Z,29.15
2022-12-18T05:21:00.043Z,25.38
2022-12-18T05:23:27.096Z,26.40
2022-12-18T05:26:03.126Z,27.15
2022-12-18T05:28:31.114Z,33.10
2022-12-18T05:31:01.427Z,27.98
2022-12-18T05:33:30.890Z,26.80
2022-12-18T05:36:03.433Z,23.35
2022-12-18T05:38:32.014Z,29.10
2022-12-18T05:40:58.854Z,27.75
2022-12-18T05:43:26.690Z,23.48
2022-12-18T05:45:54.380Z,22.25
2022-12-18T05:48:21.775Z,23.98
2022-12-18T05:50:50.182Z,20.80
2022-12-18T05:53:20.383Z,28.60
2022-12-18T05:55:47.759Z,24.10
2022-12-18T05:58:15.347Z,18.00
2022-12-18T06:00:44.540Z,28.13
2022-12-18T06:03:12.686Z,22.17
2022-12-18T06:05:41.597Z,20.02
2022-12-18T06:08:09.152Z,21.33
2022-12-18T06:10:35.769Z,18.02
2022-12-18T06:13:02.230Z,20.83
2022-12-18T06:15:29.043Z,21.05
2022-12-18T06:17:55.515Z,19.08
2022-12-18T06:20:22.303Z,22.48
2022-12-18T06:22:48.791Z,20.30
2022-12-18T06:25:16.726Z,19.48
2022-12-18T06:27:43.250Z,20.77
2022-12-18T06:30:11.747Z,17.95
2022-12-18T06:32:38.251Z,17.60
2022-12-18T06:35:11.301Z,18.83
2022-12-18T06:37:37.881Z,16.45
2022-12-18T06:40:04.687Z,19.88
2022-12-18T06:42:31.135Z,15.88
2022-12-18T06:44:57.812Z,17.17
2022-12-18T06:47:24.550Z,21.98
2022-12-18T06:49:51.028Z,15.20
2022-12-18T06:52:17.530Z,20.15
2022-12-18T06:54:44.048Z,22.73
2022-12-18T06:57:10.795Z,18.48
2022-12-18T06:59:37.357Z,17.63
2022-12-18T07:02:03.903Z,16.25
2022-12-18T07:04:31.368Z,17.00
2022-12-18T07:06:58.425Z,19.60
2022-12-18T07:09:25.328Z,13.48
2022-12-18T07:11:52.916Z,15.85
2022-12-18T07:14:20.457Z,15.63
2022-12-18T07:16:47.183Z,20.55
2022-12-18T07:19:13.749Z,16.45
2022-12-18T07:21:40.368Z,12.15
2022-12-18T07:24:07.420Z,15.63
2022-12-18T07:26:34.284Z,18.92
2022-12-18T07:29:00.824Z,11.77
2022-12-18T07:31:28.019Z,19.27
2022-12-18T07:33:55.009Z,15.38
2022-12-18T07:36:21.522Z,18.48
2022-12-18T07:38:49.484Z,15.18
2022-12-18T07:41:16.836Z,15.45
2022-12-18T07:43:45.250Z,16.40
2022-12-18T07:46:15.062Z,15.02
2022-12-18T07:48:42.863Z,14.55
2022-12-18T07:51:11.173Z,17.80
2022-12-18T07:53:38.707Z,22.17
2022-12-18T07:58:55.139Z,17.13
2022-12-18T08:01:21.883Z,15.80
2022-12-18T08:03:48.538Z,18.05
2022-12-18T08:06:16.474Z,16.10
2022-12-18T08:08:43.255Z,15.88
2022-12-18T08:11:09.996Z,20.65
2022-12-18T08:13:39.579Z,21.60
2022-12-18T08:16:08.776Z,18.38
2022-12-18T08:18:37.463Z,10.55
2022-12-18T08:21:11.471Z,16.38
2022-12-18T08:23:42.746Z,17.27
2022-12-18T08:26:11.688Z,17.13
2022-12-18T08:28:38.552Z,16.88
2022-12-18T08:31:05.406Z,12.73
2022-12-18T08:33:32.088Z,15.32
2022-12-18T08:36:02.666Z,13.82
2022-12-18T08:38:29.408Z,16.40
2022-12-18T08:41:08.237Z,14.27
2022-12-18T08:43:53.624Z,17.52
2022-12-18T08:46:21.849Z,10.25
2022-12-18T08:48:50.948Z,15.30
2022-12-18T08:51:18.148Z,13.27
2022-12-18T08:53:45.474Z,14.02
2022-12-18T08:56:13.079Z,14.02
2022-12-18T08:58:39.932Z,15.20
2022-12-18T09:01:12.020Z,11.15
2022-12-18T09:03:39.385Z,10.35
2022-12-18T09:06:06.828Z,14.10
2022-12-18T09:08:33.571Z,13.80
2022-12-18T09:11:00.146Z,17.88
2022-12-18T09:13:26.675Z,12.05
2022-12-18T09:15:55.278Z,17.90
2022-12-18T09:18:23.378Z,15.00
2022-12-18T09:20:52.709Z,15.82
2022-12-18T09:23:19.827Z,15.75
2022-12-18T09:25:46.402Z,16.77
2022-12-18T09:28:15.539Z,15.65
2022-12-18T09:30:45.311Z,18.08
2022-12-18T09:33:12.218Z,11.40
2022-12-18T09:35:40.057Z,20.35
2022-12-18T09:38:07.191Z,15.07
2022-12-18T09:40:43.958Z,12.32
2022-12-18T09:43:18.470Z,12.27
2022-12-18T09:46:15.673Z,12.40
2022-12-18T09:48:47.288Z,12.27
2022-12-18T09:51:21.216Z,17.38
2022-12-18T09:53:56.249Z,9.57
2022-12-18T09:58:57.788Z,15.15
2022-12-18T10:01:28.811Z,14.60
2022-12-18T10:04:00.609Z,18.30
2022-12-18T10:06:40.022Z,18.33
2022-12-18T10:09:17.496Z,16.02
2022-12-18T10:11:56.223Z,12.05
2022-12-18T10:14:42.469Z,12.27
2022-12-18T10:17:47.652Z,13.80
2022-12-18T10:20:21.823Z,12.75
2022-12-18T10:23:06.981Z,7.15
2022-12-18T10:26:15.466Z,11.32
2022-12-18T10:28:46.042Z,9.07
2022-12-18T10:31:24.306Z,15.27
2022-12-18T10:33:52.140Z,14.77
2022-12-18T10:36:18.576Z,12.43
2022-12-18T10:38:45.227Z,9.45
2022-12-18T10:41:23.057Z,16.75
2022-12-18T10:44:09.794Z,8.07
2022-12-18T10:46:36.356Z,9.95
2022-12-18T10:49:02.922Z,12.88
2022-12-18T10:51:38.375Z,12.43
2022-12-18T10:54:07.860Z,8.13
2022-12-18T10:56:36.720Z,18.80
2022-12-18T11:01:56.592Z,12.85
2022-12-18T11:04:26.256Z,18.58
2022-12-18T11:07:04.971Z,18.58
2022-12-18T11:09:34.295Z,17.75
2022-12-18T11:12:04.793Z,11.82
2022-12-18T11:14:34.737Z,12.88
2022-12-18T11:17:32.033Z,14.43
2022-12-18T11:22:36.192Z,11.50
2022-12-18T11:28:01.976Z,12.98
2022-12-18T11:30:30.050Z,13.15
2022-12-18T11:33:22.919Z,16.75
2022-12-18T11:36:00.585Z,11.55
2022-12-18T11:38:44.325Z,15.27
2022-12-18T11:42:03.591Z,11.68
2022-12-18T11:44:47.117Z,13.05
2022-12-18T11:47:30.614Z,11.70
2022-12-18T11:50:01.753Z,12.80
2022-12-18T11:52:40.920Z,12.02
2022-12-18T11:55:16.594Z,14.60
2022-12-18T11:57:59.185Z,13.60
2022-12-18T12:00:26.174Z,11.10
2022-12-18T12:03:16.144Z,14.70
2022-12-18T12:06:21.051Z,12.85
2022-12-18T12:08:55.866Z,13.77
2022-12-18T12:12:00.694Z,11.30
2022-12-18T12:15:04.351Z,11.85
2022-12-18T12:17:55.454Z,16.33
2022-12-18T12:21:01.751Z,11.23
2022-12-18T12:24:01.907Z,16.65
2022-12-18T12:26:46.381Z,12.35
2022-12-18T12:29:40.020Z,11.43
2022-12-18T12:32:12.556Z,16.92
2022-12-18T12:35:00.939Z,12.38
2022-12-18T12:37:44.957Z,10.65
2022-12-18T12:40:50.257Z,13.23
2022-12-18T12:43:23.431Z,10.55
2022-12-18T12:46:09.906Z,11.60
2022-12-18T12:48:52.131Z,7.93
2022-12-18T12:51:29.269Z,14.07
2022-12-18T12:53:58.274Z,12.07
2022-12-18T12:56:39.844Z,14.73
2022-12-18T12:59:26.115Z,9.18
2022-12-18T13:02:33.378Z,18.00
2022-12-18T13:05:07.676Z,12.05
2022-12-18T13:07:41.995Z,13.00
2022-12-18T13:10:11.954Z,10.07
2022-12-18T13:12:59.312Z,11.95
2022-12-18T13:15:28.753Z,10.07
2022-12-18T13:18:06.242Z,10.95
2022-12-18T13:21:13.489Z,14.02
2022-12-18T13:23:41.384Z,13.38
2022-12-18T13:26:12.056Z,13.55
2022-12-18T13:28:47.720Z,16.60
2022-12-18T13:31:42.599Z,9.65
2022-12-18T13:34:33.654Z,10.30
2022-12-18T13:37:32.721Z,11.57
2022-12-18T13:39:59.381Z,8.85
2022-12-18T13:42:56.803Z,13.43
2022-12-18T13:45:58.233Z,17.35
2022-12-18T13:48:27.853Z,15.40
2022-12-18T13:50:59.807Z,15.07
2022-12-18T13:53:30.453Z,17.02
2022-12-18T13:55:58.234Z,12.63
2022-12-18T13:58:24.759Z,15.60
2022-12-18T14:00:51.549Z,11.20
2022-12-18T14:03:26.918Z,12.32
2022-12-18T14:05:57.577Z,9.40
2022-12-18T14:08:24.506Z,11.50
2022-12-18T14:10:53.291Z,15.45
2022-12-18T14:13:31.452Z,10.18
2022-12-18T14:16:03.909Z,14.07
2022-12-18T14:18:46.966Z,13.27
2022-12-18T14:21:24.532Z,10.00
2022-12-18T14:24:18.614Z,10.73
2022-12-18T14:26:47.674Z,12.25
2022-12-18T14:29:27.542Z,14.32
2022-12-18T14:32:18.351Z,12.15
2022-12-18T14:34:51.194Z,10.55
2022-12-18T14:37:21.947Z,16.00
2022-12-18T14:40:05.764Z,11.35
2022-12-18T14:42:38.196Z,18.08
2022-12-18T14:45:42.309Z,13.75
2022-12-18T14:48:22.911Z,15.10
2022-12-18T14:51:08.231Z,15.27
2022-12-18T14:53:36.595Z,14.35
2022-12-18T14:56:13.152Z,14.77
2022-12-18T14:58:40.663Z,15.48
2022-12-18T15:01:09.752Z,15.57
2022-12-18T15:03:42.572Z,14.30
2022-12-18T15:06:17.577Z,13.80
2022-12-18T15:08:44.537Z,14.55
2022-12-18T15:11:46.332Z,20.30
2022-12-18T15:14:24.578Z,12.43
2022-12-18T15:16:55.103Z,11.20
2022-12-18T15:19:26.417Z,15.98
2022-12-18T15:21:53.287Z,10.55
2022-12-18T15:24:28.031Z,15.18
2022-12-18T15:27:02.010Z,19.55
2022-12-18T15:29:31.752Z,13.13
2022-12-18T15:32:01.731Z,15.65
2022-12-18T15:34:29.026Z,14.02
2022-12-18T15:36:55.747Z,13.00
2022-12-18T15:39:22.492Z,14.27
2022-12-18T15:42:18.928Z,14.88
2022-12-18T15:44:45.985Z,18.77
2022-12-18T15:47:14.270Z,18.17
2022-12-18T15:49:43.829Z,16.98
2022-12-18T15:52:14.395Z,14.50
2022-12-18T15:54:59.633Z,14.90
2022-12-18T15:57:26.328Z,11.57
2022-12-18T15:59:55.099Z,20.65
2022-12-18T16:02:23.911Z,11.18
2022-12-18T16:04:53.336Z,14.55
2022-12-18T16:07:24.920Z,14.00
2022-12-18T16:09:56.503Z,20.65
2022-12-18T16:12:29.665Z,16.63
2022-12-18T16:14:59.240Z,12.13
2022-12-18T16:17:28.639Z,20.02
2022-12-18T16:19:57.599Z,15.52
2022-12-18T16:24:55.119Z,10.30
2022-12-18T16:27:25.609Z,18.42
2022-12-18T16:29:52.247Z,15.02
2022-12-18T16:32:22.332Z,16.73
2022-12-18T16:34:53.046Z,13.63
2022-12-18T16:37:20.040Z,14.43
2022-12-18T16:39:49.835Z,13.38
2022-12-18T16:42:20.330Z,21.92
2022-12-18T16:44:49.581Z,12.52
2022-12-18T16:47:29.285Z,19.80
2022-12-18T16:49:59.241Z,13.38
2022-12-18T16:52:33.191Z,12.52
2022-12-18T16:55:53.309Z,14.02
2022-12-18T16:57:53.865Z,11.32
2022-12-18T17:00:23.659Z,16.63
2022-12-18T17:02:50.756Z,18.75
2022-12-18T17:05:18.222Z,17.33
2022-12-18T17:07:58.358Z,20.90
2022-12-18T17:10:25.418Z,15.10
2022-12-18T17:12:54.581Z,16.20
2022-12-18T17:15:23.529Z,21.70
2022-12-18T17:17:52.126Z,18.42
2022-12-18T17:20:23.996Z,19.75
2022-12-18T17:22:56.956Z,16.80
2022-12-18T17:25:27.566Z,13.80
2022-12-18T17:27:54.675Z,16.40
2022-12-18T17:30:21.189Z,19.52
2022-12-18T17:32:47.674Z,17.42
2022-12-18T17:35:14.259Z,15.88
2022-12-18T17:37:40.779Z,14.82
2022-12-18T17:40:07.896Z,17.58
2022-12-18T17:42:34.302Z,18.83
2022-12-18T17:45:00.819Z,24.20
2022-12-18T17:47:27.240Z,18.00
2022-12-18T17:50:00.093Z,15.93
2022-12-18T17:52:29.948Z,20.85
2022-12-18T17:54:57.202Z,17.05
2022-12-18T17:57:24.410Z,20.08
2022-12-18T17:59:53.843Z,21.95
2022-12-18T18:02:23.469Z,15.68
2022-12-18T18:04:50.449Z,14.85
2022-12-18T18:07:17.084Z,16.58
2022-12-18T18:09:43.721Z,20.92
2022-12-18T18:12:28.907Z,16.58
2022-12-18T18:14:55.615Z,17.75
2022-12-18T18:17:22.683Z,20.40
2022-12-18T18:19:49.815Z,13.20
2022-12-18T18:22:16.702Z,17.27
2022-12-18T18:24:44.456Z,16.40
2022-12-18T18:27:15.588Z,19.23
2022-12-18T18:29:42.264Z,15.75
2022-12-18T18:32:12.213Z,19.10
2022-12-18T18:34:38.852Z,19.70
2022-12-18T18:37:10.283Z,17.60
2022-12-18T18:39:36.818Z,24.58
2022-12-18T18:42:04.049Z,18.73
2022-12-18T18:44:31.095Z,20.92
2022-12-18T18:46:58.966Z,19.90
2022-12-18T18:49:27.080Z,17.80
2022-12-18T18:51:57.719Z,25.25
2022-12-18T18:54:25.408Z,19.08
2022-12-18T18:59:39.273Z,21.17
2022-12-18T19:02:07.515Z,13.90
2022-12-18T19:04:35.398Z,22.35
2022-12-18T19:07:04.527Z,18.40
2022-12-18T19:09:36.249Z,19.77
2022-12-18T19:12:22.065Z,19.17
2022-12-18T19:14:48.883Z,20.73
2022-12-18T19:17:15.626Z,17.35
2022-12-18T19:19:42.470Z,17.08
2022-12-18T19:22:10.922Z,18.67
2022-12-18T19:24:38.349Z,18.25
2022-12-18T19:27:06.075Z,20.30
2022-12-18T19:29:32.536Z,15.73
2022-12-18T19:31:59.479Z,24.77
2022-12-18T19:34:25.985Z,21.77
2022-12-18T19:36:57.967Z,22.15
2022-12-18T19:39:26.363Z,20.05
2022-12-18T19:41:53.028Z,19.20
2022-12-18T19:44:23.849Z,19.52
2022-12-18T19:46:51.596Z,14.70
2022-12-18T19:49:18.449Z,17.33
2022-12-18T19:51:45.631Z,16.27
2022-12-18T19:54:17.069Z,20.98
2022-12-18T19:56:47.547Z,18.63
2022-12-18T19:59:14.568Z,17.92
2022-12-18T20:01:41.863Z,15.32
2022-12-18T20:04:11.683Z,23.58
2022-12-18T20:06:52.638Z,24.92
2022-12-18T20:09:22.812Z,21.45
2022-12-18T20:11:50.664Z,18.17
2022-12-18T20:14:22.489Z,19.00
2022-12-18T20:16:50.857Z,21.50
2022-12-18T20:19:29.512Z,19.67
2022-12-18T20:21:57.232Z,19.85
2022-12-18T20:24:23.779Z,18.77
2022-12-18T20:26:50.428Z,20.23
2022-12-18T20:29:17.936Z,24.02
2022-12-18T20:31:44.911Z,24.33
2022-12-18T20:34:11.529Z,26.13
2022-12-18T20:36:38.815Z,23.42
2022-12-18T20:39:09.965Z,17.52
2022-12-18T20:41:40.147Z,19.25
2022-12-18T20:44:21.629Z,23.90
2022-12-18T20:47:07.014Z,16.67
2022-12-18T20:49:38.084Z,23.77
2022-12-18T20:52:07.164Z,20.55
2022-12-18T20:54:34.030Z,26.48
2022-12-18T20:57:01.176Z,23.40
2022-12-18T20:59:28.006Z,19.35
2022-12-18T21:01:55.830Z,23.27
2022-12-18T21:04:24.233Z,23.65
2022-12-18T21:07:00.577Z,17.77
2022-12-18T21:09:37.832Z,19.42
2022-12-18T21:12:40.229Z,30.88
2022-12-18T21:17:44.548Z,21.00
2022-12-18T21:20:13.304Z,21.13
2022-12-18T21:22:51.829Z,25.38
2022-12-18T21:25:23.684Z,29.52
2022-12-18T21:27:50.499Z,21.65
2022-12-18T21:30:20.907Z,31.25
2022-12-18T21:32:50.057Z,26.20
2022-12-18T21:35:17.655Z,23.50
2022-12-18T21:37:50.655Z,22.38
2022-12-18T21:40:17.646Z,24.30
2022-12-18T21:43:03.491Z,27.85
2022-12-18T21:45:30.037Z,30.38
2022-12-18T21:47:56.484Z,24.13
2022-12-18T21:50:23.708Z,30.38
2022-12-18T21:52:53.308Z,26.60
2022-12-18T21:55:22.530Z,28.80
2022-12-18T21:57:53.860Z,27.95
2022-12-18T22:00:23.694Z,29.25
2022-12-18T22:03:17.911Z,23.48
2022-12-18T22:05:36.687Z,24.27
2022-12-18T22:08:08.981Z,30.88
2022-12-18T22:10:36.585Z,27.20
2022-12-18T22:13:04.543Z,25.55
2022-12-18T22:15:34.298Z,21.67
2022-12-18T22:18:11.482Z,26.80
2022-12-18T22:20:38.943Z,34.33
2022-12-18T22:23:09.521Z,29.13
2022-12-18T22:25:40.253Z,24.90
2022-12-18T22:28:27.662Z,30.13
2022-12-18T22:30:59.687Z,26.60
2022-12-18T22:33:27.046Z,34.70
2022-12-18T22:35:54.048Z,37.67
2022-12-18T22:38:30.561Z,26.73
2022-12-18T22:41:00.202Z,24.33
2022-12-18T22:43:26.728Z,24.63
2022-12-18T22:45:53.303Z,31.45
2022-12-18T22:48:20.386Z,33.35
2022-12-18T22:50:49.868Z,32.38
2022-12-18T22:53:18.118Z,33.00
2022-12-18T22:55:44.626Z,27.35
2022-12-18T22:58:14.296Z,33.50
2022-12-18T23:00:43.720Z,28.85
2022-12-18T23:03:10.380Z,32.83
2022-12-18T23:05:42.173Z,33.60
2022-12-18T23:08:09.482Z,33.78
2022-12-18T23:10:42.365Z,33.38
2022-12-18T23:13:10.377Z,21.95
2022-12-18T23:15:43.285Z,30.55
2022-12-18T23:18:10.445Z,32.83
2022-12-18T23:20:42.304Z,25.13
2022-12-18T23:23:12.551Z,31.90
2022-12-18T23:25:40.811Z,31.35
2022-12-18T23:28:10.111Z,30.02
2022-12-18T23:30:36.699Z,29.10
2022-12-18T23:33:03.386Z,40.13
2022-12-18T23:35:30.596Z,35.42
2022-12-18T23:37:58.708Z,35.10
2022-12-18T23:40:26.153Z,35.03
2022-12-18T23:42:52.591Z,36.08
2022-12-18T23:45:19.041Z,37.65
2022-12-18T23:47:47.055Z,34.35
2022-12-18T23:50:17.539Z,34.80
2022-12-18T23:52:44.092Z,31.02
2022-12-18T23:55:10.530Z,31.70
2022-12-18T23:57:42.117Z,37.80
